Time;durP1;ratioP1;P1;durP2;ratioP2;P2;SDS_P1;SDS_P2;PMS_P1;PMS_P2;Temp;Humidity;BMP_temperature;BMP_pressure;BME280_temperature;BME280_humidity;BME280_pressure;Samples;Min_cycle;Max_cycle;Signal;HPM_P1;HPM_P2
2024/01/05 00:01:23;;;;;;;;;;;6.20;99.90;;;;;;5036430;28;19905;-75
2024/01/05 00:03:48;;;;;;;;;;;6.30;99.90;;;;;;5035999;28;20547;-76
2024/01/05 00:06:14;;;;;;;;;;;6.30;99.90;;;;;;5036241;28;19905;-76
2024/01/05 00:08:39;;;;;;;;;;;6.30;99.90;;;;;;5035877;28;19916;-76
2024/01/05 00:11:05;;;;;;;;;;;6.50;99.90;;;;;;5035974;28;19905;-75
2024/01/05 00:13:30;;;;;;;;;;;6.70;99.90;;;;;;5035944;28;20546;-75
2024/01/05 00:15:56;;;;;;;;;;;6.90;99.90;;;;;;5035838;28;19908;-76
2024/01/05 00:18:21;;;;;;;;;;;7.00;99.90;;;;;;5035863;28;19908;-76
2024/01/05 00:20:47;;;;;;;;;;;7.10;99.90;;;;;;5053571;28;19951;-76
2024/01/05 00:23:12;;;;;;;;;;;7.20;99.90;;;;;;5053755;28;19939;-76
2024/01/05 00:25:38;;;;;;;;;;;7.30;99.90;;;;;;5036013;28;19905;-75
2024/01/05 00:28:03;;;;;;;;;;;7.30;99.90;;;;;;5053878;28;19915;-76
2024/01/05 00:30:29;;;;;;;;;;;7.40;99.90;;;;;;5035512;28;19965;-76
2024/01/05 00:32:55;;;;;;;;;;;7.50;99.90;;;;;;5053653;28;19909;-75
2024/01/05 00:35:20;;;;;;;;;;;7.60;99.90;;;;;;5053104;28;19917;-75
2024/01/05 00:37:46;;;;;;;;;;;7.60;99.90;;;;;;5053829;28;19913;-76
2024/01/05 00:40:12;;;;;;;;;;;7.60;99.90;;;;;;5053576;28;19966;-76
2024/01/05 00:42:37;;;;;;;;;;;7.60;99.90;;;;;;5053309;28;20373;-76
2024/01/05 00:45:03;;;;;;;;;;;7.50;99.90;;;;;;5036072;28;19990;-76
2024/01/05 00:47:28;;;;;;;;;;;7.40;99.90;;;;;;5053956;28;20032;-76
2024/01/05 00:49:54;;;;;;;;;;;7.30;99.90;;;;;;5053675;28;19905;-75
2024/01/05 00:52:19;;;;;;;;;;;7.20;99.90;;;;;;5036159;28;19909;-76
2024/01/05 00:54:45;;;;;;;;;;;7.20;99.90;;;;;;5035215;28;20322;-76
2024/01/05 00:57:10;;;;;;;;;;;7.10;99.90;;;;;;5035953;28;20449;-76
2024/01/05 00:59:36;;;;;;;;;;;7.10;99.90;;;;;;5035483;28;19912;-75
2024/01/05 01:02:02;;;;;;;;;;;7.00;99.90;;;;;;5053351;28;19951;-76
2024/01/05 01:04:27;;;;;;;;;;;7.00;99.90;;;;;;5035748;28;19919;-76
2024/01/05 01:06:52;;;;;;;;;;;7.00;99.90;;;;;;5036166;28;20274;-76
2024/01/05 01:09:18;;;;;;;;;;;6.90;99.90;;;;;;5053300;28;20526;-75
2024/01/05 01:11:43;;;;;;;;;;;6.90;99.90;;;;;;5053519;28;20015;-75
2024/01/05 01:14:09;;;;;;;;;;;6.80;99.90;;;;;;5035655;28;20262;-76
2024/01/05 01:16:35;;;;;;;;;;;6.70;99.90;;;;;;5054114;28;19904;-76
2024/01/05 01:19:00;;;;;;;;;;;6.70;99.90;;;;;;5036224;28;19912;-75
2024/01/05 01:21:26;;;;;;;;;;;6.60;99.90;;;;;;5036072;28;19913;-76
2024/01/05 01:23:51;;;;;;;;;;;6.50;99.90;;;;;;5053681;28;19952;-76
2024/01/05 01:26:17;;;;;;;;;;;6.50;99.90;;;;;;5036149;28;20010;-76
2024/01/05 01:28:42;;;;;;;;;;;6.40;99.90;;;;;;5053897;28;20401;-75
2024/01/05 01:31:08;;;;;;;;;;;6.40;99.90;;;;;;5054098;28;19916;-76
2024/01/05 01:33:34;;;;;;;;;;;6.40;99.90;;;;;;5053998;28;19912;-76
2024/01/05 01:35:59;;;;;;;;;;;6.50;99.90;;;;;;5053939;28;19908;-76
2024/01/05 01:38:25;;;;;;;;;;;6.50;99.90;;;;;;5036074;28;19908;-76
2024/01/05 01:40:52;;;;;;;;;;;6.40;99.90;;;;;;5054167;28;19913;-76
2024/01/05 01:43:22;;;;;;;;;;;6.50;99.90;;;;;;5035730;28;20011;-76
2024/01/05 01:45:48;;;;;;;;;;;6.50;99.90;;;;;;5051375;28;19904;-75
2024/01/05 01:48:14;;;;;;;;;;;6.40;99.90;;;;;;5054801;28;19951;-76
2024/01/05 01:50:40;;;;;;;;;;;6.40;99.90;;;;;;5036529;28;20289;-75
2024/01/05 01:53:05;;;;;;;;;;;6.50;99.90;;;;;;5036307;28;19957;-76
2024/01/05 01:55:31;;;;;;;;;;;6.50;99.90;;;;;;5054906;28;19911;-76
2024/01/05 01:57:56;;;;;;;;;;;6.40;99.90;;;;;;5035877;28;19908;-76
2024/01/05 02:00:22;;;;;;;;;;;6.60;99.90;;;;;;5036932;28;20369;-76
2024/01/05 02:02:48;;;;;;;;;;;6.80;99.90;;;;;;5055138;28;19919;-77
2024/01/05 02:05:14;;;;;;;;;;;6.70;99.90;;;;;;5056514;28;19931;-75
2024/01/05 02:07:39;;;;;;;;;;;6.80;99.90;;;;;;5038761;28;19970;-76
2024/01/05 02:10:05;;;;;;;;;;;6.80;99.90;;;;;;5037327;28;19974;-75
2024/01/05 02:12:30;;;;;;;;;;;7.00;99.90;;;;;;5055839;28;19909;-75
2024/01/05 02:14:56;;;;;;;;;;;6.90;99.90;;;;;;5055390;28;19909;-76
2024/01/05 02:17:31;;;;;;;;;;;6.80;99.90;;;;;;5055626;28;19960;-75
2024/01/05 02:19:57;;;;;;;;;;;6.70;99.90;;;;;;5037832;28;19905;-76
2024/01/05 02:22:26;;;;;;;;;;;6.60;99.90;;;;;;5037612;28;20432;-76
2024/01/05 02:24:52;;;;;;;;;;;6.50;99.90;;;;;;5037683;28;20404;-77
2024/01/05 02:27:17;;;;;;;;;;;6.50;99.90;;;;;;5055770;28;19904;-76
2024/01/05 02:29:43;;;;;;;;;;;6.50;99.90;;;;;;5055759;28;20031;-75
2024/01/05 02:32:08;;;;;;;;;;;6.40;99.90;;;;;;5038027;28;20377;-76
2024/01/05 02:34:34;;;;;;;;;;;6.30;99.90;;;;;;5037831;28;20358;-76
2024/01/05 02:36:59;;;;;;;;;;;6.20;99.90;;;;;;5037383;28;19928;-76
2024/01/05 02:39:24;;;;;;;;;;;6.20;99.90;;;;;;5037377;28;19909;-76
2024/01/05 02:41:50;;;;;;;;;;;6.20;99.90;;;;;;5038163;28;19954;-76
2024/01/05 02:44:16;;;;;;;;;;;6.20;99.90;;;;;;5037869;28;19954;-76
2024/01/05 02:46:41;;;;;;;;;;;6.20;99.90;;;;;;5055168;28;19950;-76
2024/01/05 02:49:07;;;;;;;;;;;6.30;99.90;;;;;;5037964;28;19908;-76
2024/01/05 02:51:32;;;;;;;;;;;6.20;99.90;;;;;;5055696;28;19905;-76
2024/01/05 02:53:58;;;;;;;;;;;6.20;99.90;;;;;;5055638;28;19962;-75
2024/01/05 02:56:23;;;;;;;;;;;6.20;99.90;;;;;;5056153;28;19948;-76
2024/01/05 02:58:52;;;;;;;;;;;6.10;99.90;;;;;;5056274;28;20377;-76
2024/01/05 03:01:18;;;;;;;;;;;6.10;99.90;;;;;;5037559;28;19958;-76
2024/01/05 03:03:47;;;;;;;;;;;6.20;99.90;;;;;;5055496;28;20003;-76
2024/01/05 03:06:16;;;;;;;;;;;6.20;99.90;;;;;;5056062;28;20400;-76
2024/01/05 03:08:42;;;;;;;;;;;6.20;99.90;;;;;;5055867;28;20480;-76
2024/01/05 03:11:07;;;;;;;;;;;6.20;99.90;;;;;;5037790;28;19909;-76
2024/01/05 03:13:33;;;;;;;;;;;6.30;99.90;;;;;;5037480;28;20331;-76
2024/01/05 03:15:58;;;;;;;;;;;6.20;99.90;;;;;;5037463;28;20573;-76
2024/01/05 03:18:24;;;;;;;;;;;6.20;99.90;;;;;;5037503;28;19959;-75
2024/01/05 03:20:49;;;;;;;;;;;6.10;99.90;;;;;;5037688;28;19919;-77
2024/01/05 03:23:15;;;;;;;;;;;6.10;99.90;;;;;;5055349;28;20384;-75
2024/01/05 03:25:44;;;;;;;;;;;6.10;99.90;;;;;;5055904;28;19909;-76
2024/01/05 03:28:13;;;;;;;;;;;6.00;99.90;;;;;;5037889;28;19912;-76
2024/01/05 03:30:38;;;;;;;;;;;6.00;99.90;;;;;;5037663;28;20305;-76
2024/01/05 03:33:04;;;;;;;;;;;6.00;99.90;;;;;;5055570;28;19913;-76
2024/01/05 03:35:30;;;;;;;;;;;5.90;99.90;;;;;;5037884;28;19921;-76
2024/01/05 03:37:56;;;;;;;;;;;5.80;99.90;;;;;;5037758;28;20361;-76
2024/01/05 03:40:21;;;;;;;;;;;5.70;99.90;;;;;;5055353;28;19962;-74
2024/01/05 03:42:47;;;;;;;;;;;5.70;99.90;;;;;;5054606;28;20070;-75
2024/01/05 03:45:12;;;;;;;;;;;5.70;99.90;;;;;;5037600;28;19905;-76
2024/01/05 03:47:38;;;;;;;;;;;5.60;99.90;;;;;;5037118;28;19908;-76
2024/01/05 03:50:04;;;;;;;;;;;5.60;99.90;;;;;;5055944;28;19904;-76
2024/01/05 03:52:29;;;;;;;;;;;5.40;99.90;;;;;;5037452;28;19916;-75
2024/01/05 03:54:55;;;;;;;;;;;5.40;99.90;;;;;;5037493;28;19911;-76
2024/01/05 03:57:23;;;;;;;;;;;5.30;99.90;;;;;;5056071;28;20388;-77
2024/01/05 03:59:49;;;;;;;;;;;5.30;99.90;;;;;;5055794;28;20413;-76
2024/01/05 04:02:15;;;;;;;;;;;5.30;99.90;;;;;;5037275;28;19913;-76
2024/01/05 04:04:40;;;;;;;;;;;5.30;99.90;;;;;;5037144;28;19943;-76
2024/01/05 04:07:06;;;;;;;;;;;5.10;99.90;;;;;;5055454;28;19909;-75
2024/01/05 04:09:32;;;;;;;;;;;5.10;99.90;;;;;;5038241;28;19909;-77
2024/01/05 04:11:57;;;;;;;;;;;5.10;99.90;;;;;;5037897;28;19947;-75
2024/01/05 04:14:23;;;;;;;;;;;5.10;99.90;;;;;;5038194;28;19951;-76
2024/01/05 04:16:49;;;;;;;;;;;5.10;99.90;;;;;;5057448;28;19904;-76
2024/01/05 04:19:14;;;;;;;;;;;5.00;99.90;;;;;;5038794;28;19904;-78
2024/01/05 04:21:40;;;;;;;;;;;5.10;99.90;;;;;;5035763;28;20266;-75
2024/01/05 04:24:05;;;;;;;;;;;5.00;99.90;;;;;;5035133;28;19927;-75
2024/01/05 04:26:31;;;;;;;;;;;5.10;99.90;;;;;;5052772;28;19904;-76
2024/01/05 04:28:57;;;;;;;;;;;5.00;99.90;;;;;;5034487;28;20339;-76
2024/01/05 04:31:22;;;;;;;;;;;4.90;99.90;;;;;;5052786;28;19991;-76
2024/01/05 04:33:48;;;;;;;;;;;4.90;99.90;;;;;;5052434;28;19921;-76
2024/01/05 04:36:18;;;;;;;;;;;4.80;99.90;;;;;;5035251;28;19948;-76
2024/01/05 04:38:44;;;;;;;;;;;4.90;99.90;;;;;;5034836;28;19911;-76
2024/01/05 04:41:10;;;;;;;;;;;4.90;99.90;;;;;;5052755;28;19983;-75
2024/01/05 04:43:36;;;;;;;;;;;4.90;99.90;;;;;;5052513;28;20300;-76
2024/01/05 04:46:01;;;;;;;;;;;5.00;99.90;;;;;;5034677;28;20012;-75
2024/01/05 04:48:27;;;;;;;;;;;4.90;99.90;;;;;;5052477;28;20000;-75
2024/01/05 04:50:52;;;;;;;;;;;4.90;99.90;;;;;;5034427;28;19911;-75
2024/01/05 04:53:18;;;;;;;;;;;4.90;99.90;;;;;;5052545;28;19976;-75
2024/01/05 04:55:43;;;;;;;;;;;5.00;99.90;;;;;;5034129;28;19950;-75
2024/01/05 04:58:09;;;;;;;;;;;4.90;99.90;;;;;;5052605;28;19905;-76
2024/01/05 05:00:34;;;;;;;;;;;4.80;99.90;;;;;;5034667;28;19905;-76
2024/01/05 05:03:00;;;;;;;;;;;4.80;99.90;;;;;;5034218;28;19999;-76
2024/01/05 05:05:26;;;;;;;;;;;4.70;99.90;;;;;;5034680;28;19912;-76
2024/01/05 05:07:54;;;;;;;;;;;4.70;99.90;;;;;;5052685;28;19908;-76
2024/01/05 05:10:22;;;;;;;;;;;4.70;99.90;;;;;;5034478;28;19916;-76
2024/01/05 05:12:48;;;;;;;;;;;4.70;99.90;;;;;;5052556;28;19905;-77
2024/01/05 05:15:13;;;;;;;;;;;4.70;99.90;;;;;;5052736;28;19915;-76
2024/01/05 05:17:39;;;;;;;;;;;4.60;99.90;;;;;;5052652;28;20285;-75
2024/01/05 05:20:04;;;;;;;;;;;4.60;99.90;;;;;;5034532;28;19909;-76
2024/01/05 05:22:30;;;;;;;;;;;4.60;99.90;;;;;;5052205;28;19909;-75
2024/01/05 05:24:55;;;;;;;;;;;4.50;99.90;;;;;;5035055;28;19966;-76
2024/01/05 05:27:21;;;;;;;;;;;4.40;99.90;;;;;;5052517;28;19923;-76
2024/01/05 05:29:49;;;;;;;;;;;4.40;99.90;;;;;;5052475;28;20285;-76
2024/01/05 05:32:15;;;;;;;;;;;4.40;99.90;;;;;;5052904;28;19904;-76
2024/01/05 05:34:41;;;;;;;;;;;4.30;99.90;;;;;;5034569;28;20301;-76
2024/01/05 05:37:07;;;;;;;;;;;4.20;99.90;;;;;;5033613;28;19904;-75
2024/01/05 05:39:32;;;;;;;;;;;4.20;99.90;;;;;;5032294;28;20338;-75
2024/01/05 05:41:58;;;;;;;;;;;4.30;99.90;;;;;;5036472;28;19911;-77
2024/01/05 05:44:23;;;;;;;;;;;4.30;99.90;;;;;;5038369;28;19912;-76
2024/01/05 05:46:49;;;;;;;;;;;4.30;99.90;;;;;;5056381;28;19920;-75
2024/01/05 05:49:14;;;;;;;;;;;4.20;99.90;;;;;;5038921;28;20005;-76
2024/01/05 05:51:40;;;;;;;;;;;4.20;99.90;;;;;;5038886;28;20255;-75
2024/01/05 05:54:05;;;;;;;;;;;4.20;99.90;;;;;;5038966;28;19916;-76
2024/01/05 05:56:31;;;;;;;;;;;4.20;99.90;;;;;;5038867;28;19912;-76
2024/01/05 05:58:56;;;;;;;;;;;4.20;99.90;;;;;;5056753;28;19944;-76
2024/01/05 06:01:23;;;;;;;;;;;4.10;99.90;;;;;;5057411;28;20428;-76
2024/01/05 06:03:49;;;;;;;;;;;4.10;99.90;;;;;;5039501;28;20052;-76
2024/01/05 06:06:21;;;;;;;;;;;4.00;99.90;;;;;;5058127;28;20365;-76
2024/01/05 06:08:47;;;;;;;;;;;3.90;99.90;;;;;;5040213;28;20070;-76
2024/01/05 06:11:14;;;;;;;;;;;3.80;99.90;;;;;;5057317;28;19958;-76
2024/01/05 06:13:39;;;;;;;;;;;3.80;99.90;;;;;;5056486;28;20384;-77
2024/01/05 06:16:05;;;;;;;;;;;3.60;99.90;;;;;;5058291;28;19915;-76
2024/01/05 06:18:30;;;;;;;;;;;3.60;99.90;;;;;;5039996;28;19911;-76
2024/01/05 06:20:56;;;;;;;;;;;3.60;99.90;;;;;;5039295;28;19979;-76
2024/01/05 06:23:21;;;;;;;;;;;3.60;99.90;;;;;;5039896;28;19913;-76
2024/01/05 06:25:47;;;;;;;;;;;3.50;99.90;;;;;;5040407;28;19975;-76
2024/01/05 06:28:12;;;;;;;;;;;3.50;99.90;;;;;;5058674;28;19904;-78
2024/01/05 06:30:38;;;;;;;;;;;3.50;99.90;;;;;;5060029;28;19996;-77
2024/01/05 06:33:03;;;;;;;;;;;3.60;99.90;;;;;;5039526;28;19912;-76
2024/01/05 06:35:29;;;;;;;;;;;3.80;99.90;;;;;;5035993;28;20381;-76
2024/01/05 06:37:54;;;;;;;;;;;3.80;99.90;;;;;;5054238;28;20281;-76
2024/01/05 06:40:20;;;;;;;;;;;3.60;99.90;;;;;;5035554;28;20023;-76
2024/01/05 06:42:46;;;;;;;;;;;3.50;99.90;;;;;;5035858;28;20394;-77
2024/01/05 06:45:12;;;;;;;;;;;3.50;99.90;;;;;;5035980;28;19919;-76
2024/01/05 06:47:37;;;;;;;;;;;3.40;99.90;;;;;;5035352;28;19973;-75
2024/01/05 06:50:03;;;;;;;;;;;3.50;99.90;;;;;;5035471;28;20405;-75
2024/01/05 06:52:28;;;;;;;;;;;3.40;99.90;;;;;;5053648;28;19951;-76
2024/01/05 06:54:54;;;;;;;;;;;3.50;99.90;;;;;;5035625;28;19909;-77
2024/01/05 06:57:19;;;;;;;;;;;3.50;99.90;;;;;;5053548;28;19944;-76
2024/01/05 06:59:45;;;;;;;;;;;3.60;99.90;;;;;;5035804;28;19958;-76
2024/01/05 07:02:11;;;;;;;;;;;3.60;99.90;;;;;;5036458;28;19905;-76
2024/01/05 07:04:36;;;;;;;;;;;3.60;99.90;;;;;;5053701;28;20007;-76
2024/01/05 07:07:02;;;;;;;;;;;3.70;99.90;;;;;;5035511;28;19906;-76
2024/01/05 07:09:27;;;;;;;;;;;3.80;99.90;;;;;;5053468;28;19909;-76
2024/01/05 07:11:53;;;;;;;;;;;3.80;99.90;;;;;;5035383;28;19911;-77
2024/01/05 07:14:18;;;;;;;;;;;3.80;99.90;;;;;;5035197;28;19908;-76
2024/01/05 07:16:44;;;;;;;;;;;4.00;99.90;;;;;;5035366;28;19968;-76
2024/01/05 07:19:09;;;;;;;;;;;4.10;99.90;;;;;;5035165;28;19931;-77
2024/01/05 07:21:40;;;;;;;;;;;4.20;99.90;;;;;;5035338;28;20389;-77
2024/01/05 07:24:06;;;;;;;;;;;4.10;99.90;;;;;;5035295;28;20284;-77
2024/01/05 07:26:32;;;;;;;;;;;4.10;99.90;;;;;;5035102;28;20423;-78
2024/01/05 07:28:58;;;;;;;;;;;4.30;99.90;;;;;;5035052;28;19908;-77
2024/01/05 07:31:23;;;;;;;;;;;4.30;99.90;;;;;;5035450;28;19912;-76
2024/01/05 07:33:49;;;;;;;;;;;4.40;99.90;;;;;;4973167;28;2312396;-77
2024/01/05 07:36:14;;;;;;;;;;;4.40;99.90;;;;;;5036600;28;20009;-77
2024/01/05 07:38:40;;;;;;;;;;;4.40;99.90;;;;;;5036299;28;19912;-77
2024/01/05 07:41:06;;;;;;;;;;;4.50;99.90;;;;;;5054513;28;19978;-76
2024/01/05 07:43:32;;;;;;;;;;;4.60;99.90;;;;;;5036261;28;19923;-76
2024/01/05 07:45:57;;;;;;;;;;;4.80;99.90;;;;;;5036683;28;19905;-76
2024/01/05 07:48:23;;;;;;;;;;;5.00;99.90;;;;;;5054848;28;19963;-77
2024/01/05 07:50:49;;;;;;;;;;;5.20;99.90;;;;;;5037287;28;20468;-77
2024/01/05 07:53:14;;;;;;;;;;;5.40;99.90;;;;;;5054827;28;20018;-76
2024/01/05 07:55:40;;;;;;;;;;;5.70;99.90;;;;;;5037223;28;19958;-77
2024/01/05 07:58:05;;;;;;;;;;;6.20;99.90;;;;;;5055552;28;19905;-77
2024/01/05 08:00:31;;;;;;;;;;;6.50;99.90;;;;;;5037743;28;19915;-77
2024/01/05 08:03:01;;;;;;;;;;;6.70;99.90;;;;;;5037714;28;19924;-76
2024/01/05 08:05:27;;;;;;;;;;;6.80;99.90;;;;;;5034539;28;20542;-76
2024/01/05 08:07:52;;;;;;;;;;;7.00;99.90;;;;;;5055066;28;20003;-76
2024/01/05 08:10:18;;;;;;;;;;;7.20;99.90;;;;;;5036946;28;19954;-78
2024/01/05 08:12:43;;;;;;;;;;;7.50;99.90;;;;;;5055555;28;20369;-76
2024/01/05 08:15:09;;;;;;;;;;;7.80;99.90;;;;;;5037369;28;19911;-77
2024/01/05 08:17:34;;;;;;;;;;;8.30;99.90;;;;;;5037411;28;20276;-76
2024/01/05 08:20:00;;;;;;;;;;;8.70;99.90;;;;;;5055802;28;20363;-76
2024/01/05 08:22:25;;;;;;;;;;;9.20;99.90;;;;;;5056316;28;20007;-76
2024/01/05 08:24:51;;;;;;;;;;;9.40;99.90;;;;;;5038421;28;20004;-77
2024/01/05 08:27:17;;;;;;;;;;;9.70;99.90;;;;;;5037966;28;19913;-76
2024/01/05 08:29:42;;;;;;;;;;;9.70;99.90;;;;;;5038986;28;19911;-77
2024/01/05 08:32:08;;;;;;;;;;;9.70;99.90;;;;;;5038330;28;19948;-77
2024/01/05 08:34:34;;;;;;;;;;;9.70;99.90;;;;;;5055207;28;19916;-77
2024/01/05 08:36:59;;;;;;;;;;;9.60;99.90;;;;;;5038040;28;19912;-77
2024/01/05 08:39:25;;;;;;;;;;;9.40;99.90;;;;;;5039417;28;19905;-78
2024/01/05 08:41:51;;;;;;;;;;;9.30;99.90;;;;;;5058096;28;19912;-76
2024/01/05 08:44:16;;;;;;;;;;;9.00;99.90;;;;;;5035747;28;19924;-77
2024/01/05 08:46:42;;;;;;;;;;;8.80;99.90;;;;;;5034762;28;19905;-76
2024/01/05 08:49:07;;;;;;;;;;;8.60;99.90;;;;;;5052913;28;19934;-76
2024/01/05 08:51:33;;;;;;;;;;;8.40;99.90;;;;;;5035026;28;20274;-76
2024/01/05 08:54:03;;;;;;;;;;;8.50;99.90;;;;;;5035024;28;19958;-77
2024/01/05 08:56:28;;;;;;;;;;;8.40;99.90;;;;;;5052900;28;19911;-76
2024/01/05 08:58:54;;;;;;;;;;;8.40;99.90;;;;;;5052886;28;20003;-76
2024/01/05 09:01:19;;;;;;;;;;;8.40;99.90;;;;;;5053127;28;19905;-76
2024/01/05 09:03:45;;;;;;;;;;;8.40;99.90;;;;;;5053060;28;19935;-77
2024/01/05 09:06:11;;;;;;;;;;;8.50;99.90;;;;;;5034404;28;19905;-76
2024/01/05 09:08:36;;;;;;;;;;;8.60;99.90;;;;;;5052638;28;20003;-76
2024/01/05 09:11:02;;;;;;;;;;;8.70;99.90;;;;;;5052517;28;19912;-75
2024/01/05 09:13:27;;;;;;;;;;;8.80;99.90;;;;;;5034307;28;19908;-76
2024/01/05 09:15:53;;;;;;;;;;;8.80;99.90;;;;;;5052689;28;19905;-76
2024/01/05 09:18:18;;;;;;;;;;;8.80;99.90;;;;;;5054626;28;19905;-76
2024/01/05 09:20:44;;;;;;;;;;;8.70;99.90;;;;;;5055688;28;19912;-76
2024/01/05 09:23:09;;;;;;;;;;;8.70;99.90;;;;;;5037534;28;20364;-77
2024/01/05 09:25:35;;;;;;;;;;;8.70;99.90;;;;;;5037408;28;19911;-76
2024/01/05 09:28:01;;;;;;;;;;;8.60;99.90;;;;;;5038344;28;19916;-76
2024/01/05 09:30:26;;;;;;;;;;;8.70;99.90;;;;;;5038660;28;19974;-77
2024/01/05 09:32:52;;;;;;;;;;;8.80;99.90;;;;;;5037611;28;20365;-76
2024/01/05 09:35:18;;;;;;;;;;;8.80;99.90;;;;;;5055774;28;19920;-77
2024/01/05 09:37:43;;;;;;;;;;;8.80;99.90;;;;;;5037579;28;19992;-78
2024/01/05 09:40:10;;;;;;;;;;;8.80;99.90;;;;;;5037367;28;20375;-76
2024/01/05 09:42:38;;;;;;;;;;;8.90;99.90;;;;;;5055550;28;20008;-76
2024/01/05 09:45:05;;;;;;;;;;;8.90;99.90;;;;;;5038257;28;19904;-76
2024/01/05 09:47:31;;;;;;;;;;;8.90;99.90;;;;;;5056980;28;19979;-77
2024/01/05 09:49:59;;;;;;;;;;;9.00;99.90;;;;;;5040156;28;19994;-76
2024/01/05 09:52:24;;;;;;;;;;;9.00;99.90;;;;;;5039081;28;19991;-77
2024/01/05 09:54:50;;;;;;;;;;;9.00;99.90;;;;;;5053884;28;19952;-76
2024/01/05 09:57:17;;;;;;;;;;;9.00;99.90;;;;;;5035515;28;19912;-77
2024/01/05 09:59:47;;;;;;;;;;;9.00;99.90;;;;;;5035733;28;20025;-76
2024/01/05 10:02:21;;;;;;;;;;;8.90;99.90;;;;;;5035642;28;20415;-76
2024/01/05 10:04:46;;;;;;;;;;;8.80;99.90;;;;;;5054738;28;19924;-77
2024/01/05 10:07:12;;;;;;;;;;;8.80;99.90;;;;;;5054482;28;19905;-77
2024/01/05 10:09:48;;;;;;;;;;;8.80;99.90;;;;;;5036547;28;19915;-77
2024/01/05 10:12:13;;;;;;;;;;;8.80;99.90;;;;;;5054440;28;19915;-76
2024/01/05 10:14:39;;;;;;;;;;;8.70;99.90;;;;;;5036623;28;19946;-77
2024/01/05 10:17:08;;;;;;;;;;;8.70;99.90;;;;;;5036739;28;19931;-76
2024/01/05 10:19:35;;;;;;;;;;;8.60;99.90;;;;;;5036991;28;19905;-76
2024/01/05 10:22:20;;;;;;;;;;;8.70;99.90;;;;;;5054470;28;20050;-77
2024/01/05 10:24:46;;;;;;;;;;;8.60;99.90;;;;;;5053899;28;19912;-76
2024/01/05 10:27:12;;;;;;;;;;;8.70;99.90;;;;;;5055700;28;20376;-77
2024/01/05 10:29:42;;;;;;;;;;;8.70;99.90;;;;;;5038456;28;19916;-77
2024/01/05 10:32:17;;;;;;;;;;;8.70;99.90;;;;;;5040197;28;19905;-76
2024/01/05 10:34:44;;;;;;;;;;;8.70;99.90;;;;;;5039721;28;19921;-76
2024/01/05 10:37:09;;;;;;;;;;;8.80;99.90;;;;;;5040572;28;19927;-77
2024/01/05 10:39:35;;;;;;;;;;;8.80;99.90;;;;;;5057630;28;20428;-76
2024/01/05 10:42:19;;;;;;;;;;;8.70;99.90;;;;;;5040099;28;19927;-76
2024/01/05 10:44:45;;;;;;;;;;;8.80;99.90;;;;;;5042287;28;19913;-77
2024/01/05 10:47:17;;;;;;;;;;;8.80;99.90;;;;;;5040714;28;19911;-77
2024/01/05 10:49:48;;;;;;;;;;;8.80;99.90;;;;;;5042224;28;19991;-77
2024/01/05 10:52:14;;;;;;;;;;;8.80;99.90;;;;;;5060248;28;19905;-77
2024/01/05 10:54:40;;;;;;;;;;;8.80;99.90;;;;;;5057372;28;19905;-76
2024/01/05 10:57:08;;;;;;;;;;;8.90;99.90;;;;;;5056903;28;20376;-76
2024/01/05 10:59:34;;;;;;;;;;;8.80;99.90;;;;;;5057046;28;19999;-77
2024/01/05 11:02:02;;;;;;;;;;;8.80;99.90;;;;;;5038330;28;19997;-76
2024/01/05 11:04:29;;;;;;;;;;;8.80;99.90;;;;;;5038358;28;20301;-77
2024/01/05 11:06:55;;;;;;;;;;;8.80;99.90;;;;;;5055918;28;19904;-76
2024/01/05 11:09:27;;;;;;;;;;;8.80;99.90;;;;;;5056730;28;19908;-77
2024/01/05 11:11:59;;;;;;;;;;;8.80;99.90;;;;;;5056019;28;19904;-76
2024/01/05 11:14:36;;;;;;;;;;;8.80;99.90;;;;;;5056601;28;19927;-77
2024/01/05 11:17:02;;;;;;;;;;;8.80;99.90;;;;;;5038501;28;19987;-76
2024/01/05 11:19:48;;;;;;;;;;;8.80;99.90;;;;;;5038311;28;19955;-77
2024/01/05 11:22:19;;;;;;;;;;;8.80;99.90;;;;;;5038715;28;20258;-76
2024/01/05 11:24:44;;;;;;;;;;;8.80;99.90;;;;;;5039248;28;19913;-76
2024/01/05 11:27:29;;;;;;;;;;;8.70;99.90;;;;;;5038529;28;19956;-76
2024/01/05 11:29:56;;;;;;;;;;;8.70;99.90;;;;;;5039159;28;19908;-77
2024/01/05 11:32:31;;;;;;;;;;;8.70;99.90;;;;;;5038995;28;20415;-77
2024/01/05 11:34:57;;;;;;;;;;;8.80;99.90;;;;;;5039074;28;20571;-77
2024/01/05 11:37:27;;;;;;;;;;;8.80;98.20;;;;;;5039093;28;19905;-76
2024/01/05 11:39:53;;;;;;;;;;;8.90;98.00;;;;;;5056429;28;20030;-76
2024/01/05 11:42:25;;;;;;;;;;;8.90;98.10;;;;;;5039233;28;20186;-77
2024/01/05 11:44:51;;;;;;;;;;;8.90;98.50;;;;;;5038295;28;19920;-76
2024/01/05 11:47:35;;;;;;;;;;;8.80;98.80;;;;;;5038910;28;19915;-77
2024/01/05 11:50:21;;;;;;;;;;;8.90;98.10;;;;;;5039200;28;20015;-77
2024/01/05 11:52:47;;;;;;;;;;;9.00;97.30;;;;;;5038824;28;19908;-75
2024/01/05 11:55:13;;;;;;;;;;;9.20;96.10;;;;;;5054690;28;20289;-76
2024/01/05 11:57:38;;;;;;;;;;;9.30;96.20;;;;;;5039787;28;19931;-76
2024/01/05 12:00:04;;;;;;;;;;;9.30;96.10;;;;;;5059723;28;19908;-76
2024/01/05 12:02:30;;;;;;;;;;;9.30;96.40;;;;;;5040954;28;19911;-76
2024/01/05 12:04:56;;;;;;;;;;;9.20;96.50;;;;;;5040654;28;20361;-75
2024/01/05 12:07:22;;;;;;;;;;;9.20;94.90;;;;;;5039887;28;19908;-77
2024/01/05 12:09:52;;;;;;;;;;;9.20;94.50;;;;;;5057699;28;19905;-76
2024/01/05 12:12:17;;;;;;;;;;;9.10;94.50;;;;;;5038967;28;19908;-76
2024/01/05 12:14:43;;;;;;;;;;;9.00;95.00;;;;;;5039277;28;19954;-76
2024/01/05 12:17:12;;;;;;;;;;;9.00;95.20;;;;;;5039712;28;19905;-76
2024/01/05 12:19:39;;;;;;;;;;;9.00;95.50;;;;;;5039070;28;19950;-77
2024/01/05 12:22:07;;;;;;;;;;;9.00;95.90;;;;;;5040647;28;19908;-76
2024/01/05 12:24:32;;;;;;;;;;;9.00;95.90;;;;;;5039447;28;19920;-76
2024/01/05 12:26:58;;;;;;;;;;;9.10;95.80;;;;;;5040148;28;19909;-75
2024/01/05 12:29:24;;;;;;;;;;;9.20;95.60;;;;;;5057481;28;19904;-77
2024/01/05 12:31:49;;;;;;;;;;;9.20;95.60;;;;;;5057033;28;20003;-77
2024/01/05 12:34:17;;;;;;;;;;;9.30;95.30;;;;;;5038739;28;19970;-76
2024/01/05 12:36:43;;;;;;;;;;;9.20;95.20;;;;;;5037823;28;19905;-77
2024/01/05 12:39:11;;;;;;;;;;;9.20;95.40;;;;;;5038856;28;19928;-76
2024/01/05 12:41:39;;;;;;;;;;;9.30;95.30;;;;;;5038451;28;19908;-76
2024/01/05 12:44:07;;;;;;;;;;;9.30;95.20;;;;;;5056702;28;19917;-76
2024/01/05 12:46:39;;;;;;;;;;;9.40;94.00;;;;;;5056042;28;20427;-76
2024/01/05 12:49:25;;;;;;;;;;;9.30;94.40;;;;;;5038185;28;19905;-77
2024/01/05 12:51:51;;;;;;;;;;;9.30;94.90;;;;;;5057025;28;19913;-77
2024/01/05 12:54:17;;;;;;;;;;;9.40;94.30;;;;;;5058298;28;19909;-76
2024/01/05 12:56:48;;;;;;;;;;;9.60;94.40;;;;;;5042273;28;19904;-76
2024/01/05 12:59:39;;;;;;;;;;;9.70;94.20;;;;;;5060515;28;19904;-77
2024/01/05 13:02:06;;;;;;;;;;;9.60;94.20;;;;;;5056538;28;19919;-77
2024/01/05 13:04:34;;;;;;;;;;;9.60;94.90;;;;;;5056380;28;19913;-76
2024/01/05 13:07:00;;;;;;;;;;;9.50;95.40;;;;;;5038309;28;19905;-76
2024/01/05 13:09:26;;;;;;;;;;;9.50;95.50;;;;;;5056017;28;19962;-76
2024/01/05 13:11:52;;;;;;;;;;;9.40;96.00;;;;;;5055653;28;19943;-77
2024/01/05 13:14:18;;;;;;;;;;;9.40;96.20;;;;;;5057205;28;19996;-77
2024/01/05 13:16:44;;;;;;;;;;;9.40;96.30;;;;;;5058451;28;20552;-78
2024/01/05 13:19:10;;;;;;;;;;;9.50;96.20;;;;;;5059221;28;19905;-78
2024/01/05 13:21:35;;;;;;;;;;;9.60;96.20;;;;;;5057484;28;19993;-76
2024/01/05 13:24:01;;;;;;;;;;;9.50;96.50;;;;;;5036646;28;20361;-76
2024/01/05 13:26:26;;;;;;;;;;;9.70;96.60;;;;;;5036361;28;19912;-77
2024/01/05 13:28:52;;;;;;;;;;;9.60;96.50;;;;;;5036172;28;19948;-77
2024/01/05 13:31:17;;;;;;;;;;;9.70;96.70;;;;;;5036108;28;19912;-77
2024/01/05 13:33:43;;;;;;;;;;;9.70;96.80;;;;;;5053760;28;19935;-77
2024/01/05 13:36:09;;;;;;;;;;;9.70;96.80;;;;;;5053806;28;20332;-77
2024/01/05 13:38:34;;;;;;;;;;;9.70;96.70;;;;;;5035921;28;19912;-76
2024/01/05 13:41:00;;;;;;;;;;;9.60;96.90;;;;;;5035987;28;19923;-77
2024/01/05 13:43:25;;;;;;;;;;;9.60;97.00;;;;;;5035746;28;20007;-77
2024/01/05 13:45:51;;;;;;;;;;;9.70;96.80;;;;;;5036878;28;19908;-76
2024/01/05 13:48:16;;;;;;;;;;;9.60;96.70;;;;;;5036293;28;20573;-76
2024/01/05 13:50:42;;;;;;;;;;;9.70;96.60;;;;;;5036194;28;19908;-76
2024/01/05 13:53:12;;;;;;;;;;;9.70;96.90;;;;;;5053539;28;19911;-76
2024/01/05 13:55:38;;;;;;;;;;;9.60;96.90;;;;;;5054413;28;19912;-76
2024/01/05 13:58:03;;;;;;;;;;;9.60;97.30;;;;;;5052510;28;19908;-76
2024/01/05 14:00:29;;;;;;;;;;;9.50;97.50;;;;;;5053847;28;19951;-75
2024/01/05 14:02:55;;;;;;;;;;;9.60;97.30;;;;;;5036897;28;19913;-76
2024/01/05 14:05:20;;;;;;;;;;;9.60;97.70;;;;;;5057954;28;19905;-76
2024/01/05 14:07:46;;;;;;;;;;;9.50;97.80;;;;;;5040201;28;20285;-75
2024/01/05 14:10:11;;;;;;;;;;;9.60;97.90;;;;;;5058488;28;19950;-76
2024/01/05 14:12:37;;;;;;;;;;;9.60;97.80;;;;;;5057785;28;20007;-76
2024/01/05 14:15:04;;;;;;;;;;;9.60;97.90;;;;;;5040815;28;19909;-76
2024/01/05 14:17:29;;;;;;;;;;;9.60;98.10;;;;;;5040776;28;19904;-76
2024/01/05 14:19:55;;;;;;;;;;;9.50;98.40;;;;;;5040539;28;20050;-77
2024/01/05 14:22:21;;;;;;;;;;;9.50;98.40;;;;;;5040975;28;19904;-76
2024/01/05 14:24:46;;;;;;;;;;;9.60;98.00;;;;;;5058861;28;20373;-76
2024/01/05 14:27:12;;;;;;;;;;;9.70;97.40;;;;;;5059523;28;19920;-78